ADDS METAR Data INFO
IDs: Format: Raw Decoded Include TAF

Data at: 1015 UTC 14 Dec 2017

K28J 140955Z AUTO 20005KT 10SM BKN031 OVC037 07/06 A3000 RMK AO2
K28J 140935Z AUTO 00000KT 10SM OVC029 07/06 A3001 RMK AO2
K28J 140915Z AUTO 20004KT 10SM OVC029 06/05 A3001 RMK AO2
K28J 140855Z AUTO 00000KT 10SM OVC029 06/05 A3001 RMK AO2
K28J 140835Z AUTO 22003KT 10SM OVC029 06/05 A3001 RMK AO2
K28J 140815Z AUTO 21003KT 10SM BKN027 BKN033 05/05 A3002 RMK AO2
K28J 140755Z AUTO 00000KT 10SM FEW031 03/03 A3003 RMK AO2
K28J 140735Z AUTO 00000KT 10SM FEW025 04/04 A3003 RMK AO2
K28J 140715Z AUTO 00000KT 10SM CLR 04/03 A3002 RMK AO2
K28J 140655Z AUTO 00000KT 10SM FEW027 04/03 A3002 RMK AO2
K28J 140635Z AUTO 00000KT 10SM CLR 04/03 A3002 RMK AO2
K28J 140555Z AUTO 21003KT 10SM CLR 03/03 A3002 RMK AO2
K28J 140535Z AUTO 00000KT 10SM CLR 04/03 A3003 RMK AO2
K28J 140515Z AUTO 00000KT 10SM CLR 04/02 A3003 RMK AO2
K28J 140455Z AUTO 00000KT 10SM CLR 05/02 A3004 RMK AO2
K28J 140435Z AUTO 00000KT 10SM CLR 05/02 A3003 RMK AO2
K28J 140415Z AUTO 00000KT 10SM CLR 05/01 A3004 RMK AO2
K28J 140355Z AUTO 23003KT 10SM CLR 05/01 A3004 RMK AO2
K28J 140335Z AUTO 00000KT 10SM CLR 05/02 A3005 RMK AO2
K28J 140315Z AUTO 25004KT 10SM FEW027 05/02 A3005 RMK AO2
K28J 140255Z AUTO 26004KT 10SM OVC027 06/01 A3005 RMK AO2
K28J 140235Z AUTO 25006KT 10SM BKN027 06/01 A3005 RMK AO2
K28J 140215Z AUTO 25006KT 10SM SCT027 06/01 A3005 RMK AO2
K28J 140155Z AUTO 25005KT 10SM CLR 07/00 A3004 RMK AO2
K28J 140135Z AUTO 24006KT 10SM CLR 08/00 A3004 RMK AO2
K28J 140115Z AUTO 24005KT 10SM CLR 08/00 A3005 RMK AO2
K28J 140055Z AUTO 24005KT 10SM CLR 05/02 A3006 RMK AO2
K28J 140035Z AUTO 00000KT 10SM CLR 05/02 A3005 RMK AO2
K28J 140015Z AUTO 27003KT 10SM CLR 05/03 A3005 RMK AO2
K28J 132355Z AUTO 25003KT 10SM CLR 05/03 A3005 RMK AO2
K28J 132335Z AUTO 00000KT 10SM CLR 06/04 A3005 RMK AO2
K28J 132315Z AUTO 00000KT 10SM CLR 07/03 A3004 RMK AO2
K28J 132255Z AUTO 00000KT 10SM CLR 09/03 A3004 RMK AO2
K28J 132235Z AUTO 00000KT 10SM CLR 10/00 A3003 RMK AO2
K28J 132215Z AUTO 25004KT 10SM CLR 12/00 A3003 RMK AO2
K28J 132155Z AUTO 25006KT 10SM CLR 13/M02 A3004 RMK AO2
K28J 132135Z AUTO 25006KT 10SM CLR 14/M02 A3004 RMK AO2
K28J 132115Z AUTO 29009KT 10SM CLR 15/M03 A3003 RMK AO2
K28J 132055Z AUTO 26007KT 10SM CLR 15/M03 A3003 RMK AO2
K28J 132035Z AUTO 28008KT 10SM CLR 15/M03 A3004 RMK AO2
K28J 132015Z AUTO 32007KT 10SM CLR 15/M02 A3003 RMK AO2
K28J 131955Z AUTO 31008KT 10SM CLR 15/M03 A3004 RMK AO2
K28J 131935Z AUTO 30008KT 10SM CLR 15/M03 A3004 RMK AO2
K28J 131915Z AUTO 29009KT 10SM CLR 14/M03 A3005 RMK AO2
K28J 131855Z AUTO 29007KT 10SM CLR 15/M02 A3005 RMK AO2
K28J 131835Z AUTO 31008KT 10SM CLR 14/M03 A3006 RMK AO2
K28J 131815Z AUTO 30004KT 10SM CLR 14/M03 A3007 RMK AO2
K28J 131755Z AUTO 29005KT 10SM CLR 14/M03 A3007 RMK AO2
K28J 131735Z AUTO 27003KT 10SM CLR 13/M04 A3008 RMK AO2
K28J 131715Z AUTO 29007KT 10SM CLR 13/M04 A3010 RMK AO2
K28J 131655Z AUTO 32005KT 10SM CLR 12/M04 A3011 RMK AO2
K28J 131635Z AUTO 29006KT 10SM CLR 12/M03 A3012 RMK AO2
K28J 131615Z AUTO 32004KT 10SM CLR 11/M03 A3013 RMK AO2
K28J 131555Z AUTO 33005KT 10SM CLR 10/M03 A3014 RMK AO2
K28J 131535Z AUTO 33006KT 10SM CLR 10/M03 A3014 RMK AO2
K28J 131515Z AUTO 32006KT 9SM CLR 09/M02 A3015 RMK AO2
K28J 131455Z AUTO 35007KT 10SM CLR 08/M01 A3014 RMK AO2
K28J 131435Z AUTO 33006KT 300V010 10SM CLR 08/00 A3014 RMK AO2
K28J 131415Z AUTO 34008KT 10SM CLR 07/01 A3014 RMK AO2
K28J 131355Z AUTO 33006KT 10SM CLR 07/02 A3014 RMK AO2
K28J 131335Z AUTO 31004KT 10SM CLR 05/03 A3013 RMK AO2
K28J 131315Z AUTO 00000KT 10SM CLR 03/03 A3013 RMK AO2
K28J 131255Z AUTO 00000KT 10SM CLR 02/02 A3012 RMK AO2
K28J 131235Z AUTO 28003KT 10SM CLR 00/00 A3012 RMK AO2
K28J 131215Z AUTO 00000KT 10SM CLR 01/01 A3011 RMK AO2
K28J 131155Z AUTO 00000KT 8SM CLR 01/01 A3010 RMK AO2
K28J 131135Z AUTO 00000KT 10SM CLR 01/01 A3009 RMK AO2
K28J 131115Z AUTO 26003KT 10SM CLR 02/02 A3008 RMK AO2
K28J 131055Z AUTO 28004KT 10SM FEW025 02/02 A3007 RMK AO2
K28J 131035Z AUTO 27004KT 10SM FEW022 02/02 A3006 RMK AO2
K28J 131015Z AUTO 26004KT 10SM CLR 03/02 A3005 RMK AO2
K28J 130955Z AUTO 27004KT 10SM CLR 03/02 A3005 RMK AO2
K28J 130935Z AUTO 25004KT 10SM CLR 03/02 A3004 RMK AO2
K28J 130915Z AUTO 26004KT 10SM CLR 03/02 A3004 RMK AO2
K28J 130855Z AUTO 26004KT 10SM CLR 04/02 A3004 RMK AO2
K28J 130835Z AUTO 25004KT 10SM FEW022 04/02 A3003 RMK AO2
K28J 130815Z AUTO 29004KT 10SM CLR 03/03 A3003 RMK AO2
K28J 130755Z AUTO 27004KT 10SM CLR 04/02 A3003 RMK AO2
K28J 130735Z AUTO 28004KT 10SM CLR 03/02 A3003 RMK AO2
K28J 130715Z AUTO 24003KT 10SM CLR 04/02 A3002 RMK AO2
K28J 130655Z AUTO 26003KT 10SM CLR 05/02 A3001 RMK AO2
K28J 130635Z AUTO 26004KT 10SM FEW026 FEW032 05/02 A3001 RMK AO2
K28J 130615Z AUTO 28005KT 10SM FEW024 FEW030 05/02 A3001 RMK AO2
K28J 130555Z AUTO 26005KT 10SM FEW026 05/03 A3002 RMK AO2
K28J 130535Z AUTO 27005KT 10SM FEW028 05/02 A3002 RMK AO2
K28J 130515Z AUTO 29004KT 10SM FEW032 05/02 A3001 RMK AO2
K28J 130455Z AUTO 26003KT 10SM FEW030 07/02 A3001 RMK AO2
K28J 130435Z AUTO 27005KT 10SM FEW030 07/02 A3001 RMK AO2
K28J 130415Z AUTO 27005KT 10SM FEW030 07/02 A3001 RMK AO2
K28J 130355Z AUTO 26005KT 10SM FEW030 07/03 A3000 RMK AO2
K28J 130335Z AUTO 28004KT 10SM FEW030 08/02 A3000 RMK AO2
K28J 130315Z AUTO 29004KT 10SM FEW030 09/01 A3000 RMK AO2
K28J 130255Z AUTO 30006KT 10SM FEW029 SCT035 10/01 A3000 RMK AO2
K28J 130235Z AUTO 31007KT 10SM SCT033 11/01 A2999 RMK AO2
K28J 130215Z AUTO 31005KT 10SM FEW033 11/02 A2999 RMK AO2
K28J 130155Z AUTO 31007KT 10SM CLR 12/02 A2998 RMK AO2
K28J 130135Z AUTO 31007KT 10SM CLR 12/02 A2998 RMK AO2
K28J 130115Z AUTO 31008KT 10SM CLR 12/02 A2997 RMK AO2
K28J 130055Z AUTO 31009KT 10SM CLR 13/02 A2996 RMK AO2
K28J 130035Z AUTO 31008KT 10SM CLR 13/02 A2995 RMK AO2
K28J 130015Z AUTO 32009KT 10SM CLR 14/02 A2994 RMK AO2
K28J 122355Z AUTO 31008KT 10SM CLR 14/03 A2993 RMK AO2
K28J 122335Z AUTO 31007KT 10SM CLR 15/03 A2992 RMK AO2
K28J 122315Z AUTO 32007KT 10SM FEW044 15/03 A2991 RMK AO2
K28J 122255Z AUTO 30009KT 10SM CLR 16/03 A2990 RMK AO2
K28J 122235Z AUTO 29007KT 10SM CLR 17/04 A2988 RMK AO2